Other Surface Observations
Issued by NWS Missoula, MT

Home | Current Version | Previous Version | Text Only | Print | Product List | Glossary On
Versions: 1 2 3 4 5 6 7 8 9 10 11 12 13 14 15 16 17 18 19 20 21 22 23 24 25 26 27 28 29 30 31 32 33 34 35 36 37 38 39 40 41 42 43 44 45 46 47 48 49 50
677
SXUS55 KMSO 221923
OSOMSO
MONTANA AWOS SUMMARY
NATIONAL WEATHER SERVICE MISSOULA MT
123 PM MDT FRI MAY 22 2015

Montana AWOS Reports

LAUREL      |K6S8 221915Z AUTO 00000KT 40SM 18/07 A2994 RMK AO1 T01780072
ROUNDUP     |KRPX 221915Z AUTO 02007KT 40SM 18/08 A2987 RMK AO1 T01830078
TWIN BRIDGES|K7S1 221915Z AUTO 16008KT 070V250 40SM 19/03 A2992 RMK AO1 T01890033
MALTA       |KM75 221915Z AUTO 08009G15KT 40SM 22/06 A2995 RMK AO1 T02220061




USA.gov is the U.S. government's official web portal to all federal, state and local government web resources and services.